Time;durP1;ratioP1;P1;durP2;ratioP2;P2;SDS_P1;SDS_P2;PMS_P1;PMS_P2;Temp;Humidity;BMP_temperature;BMP_pressure;BME280_temperature;BME280_humidity;BME280_pressure;Samples;Min_cycle;Max_cycle;Signal;HPM_P1;HPM_P2
2022/08/02 00:01:25;;;;;;;28.88;14.57;;;;;;;;;;4988140;28;20046;-73
2022/08/02 00:03:55;;;;;;;28.33;14.95;;;;;;;;;;4988223;28;20050;-73
2022/08/02 00:06:25;;;;;;;28.73;15.27;;;;;;;;;;4988358;28;20062;-72
2022/08/02 00:08:54;;;;;;;;;;;;;;;;;;4988236;28;20069;-72
2022/08/02 00:11:24;;;;;;;31.33;15.48;;;;;;;;;;4987810;28;20317;-72
2022/08/02 00:13:55;;;;;;;25.85;13.73;;;;;;;;;;4988380;28;20057;-72
2022/08/02 00:16:27;;;;;;;31.58;14.85;;;;;;;;;;4987862;28;20050;-72
2022/08/02 00:19:06;;;;;;;26.88;13.10;;;;;;;;;;4988755;28;20057;-72
2022/08/02 00:21:36;;;;;;;31.45;14.38;;;;;;;;;;4998919;28;20046;-73
2022/08/02 00:24:06;;;;;;;;;;;;;;;;;;5007636;28;20049;-72
2022/08/02 00:26:56;;;;;;;24.98;13.95;;;;;;;;;;5004838;28;20327;-72
2022/08/02 00:29:25;;;;;;;;;;;;;;;;;;5007762;28;20050;-71
2022/08/02 00:31:56;;;;;;;28.00;13.98;;;;;;;;;;4989454;28;19925;-72
2022/08/02 00:34:26;;;;;;;34.45;15.52;;;;;;;;;;5007200;28;20046;-72
2022/08/02 00:37:02;;;;;;;31.02;14.10;;;;;;;;;;5007314;28;20505;-72
2022/08/02 00:39:32;;;;;;;;;;;;;;;;;;5007949;28;20053;-73
2022/08/02 00:42:04;;;;;;;28.10;14.23;;;;;;;;;;5007981;28;19925;-73
2022/08/02 00:44:34;;;;;;;30.52;14.55;;;;;;;;;;5007799;28;20046;-72
2022/08/02 00:47:04;;;;;;;30.02;14.07;;;;;;;;;;5006862;28;20049;-73
2022/08/02 00:49:34;;;;;;;31.60;15.50;;;;;;;;;;5006455;28;20069;-73
2022/08/02 00:52:04;;;;;;;27.77;15.50;;;;;;;;;;5005905;28;20042;-72
2022/08/02 00:54:34;;;;;;;31.27;15.88;;;;;;;;;;4988999;28;21151;-72
2022/08/02 00:57:04;;;;;;;31.13;15.88;;;;;;;;;;5005353;28;20045;-73
2022/08/02 00:59:35;;;;;;;32.60;15.02;;;;;;;;;;5006895;28;20408;-74
2022/08/02 01:02:04;;;;;;;29.05;16.80;;;;;;;;;;5007064;28;20636;-72
2022/08/02 01:04:34;;;;;;;;;;;;;;;;;;5006655;28;20384;-72
2022/08/02 01:07:04;;;;;;;27.25;14.45;;;;;;;;;;5007712;28;19925;-72
2022/08/02 01:09:42;;;;;;;28.40;14.57;;;;;;;;;;5006135;28;20061;-72
2022/08/02 01:12:13;;;;;;;30.60;14.35;;;;;;;;;;5006733;28;20053;-73
2022/08/02 01:14:48;;;;;;;29.30;15.35;;;;;;;;;;5005335;28;20050;-73
2022/08/02 01:17:48;;;;;;;24.50;14.88;;;;;;;;;;5006115;28;20050;-73
2022/08/02 01:20:51;;;;;;;26.30;14.50;;;;;;;;;;5006425;28;20053;-72
2022/08/02 01:23:33;;;;;;;25.05;13.45;;;;;;;;;;5006889;28;20616;-72
2022/08/02 01:26:37;;;;;;;24.42;13.15;;;;;;;;;;5007050;28;20057;-73
2022/08/02 01:29:22;;;;;;;26.70;13.95;;;;;;;;;;5007358;28;20044;-73
2022/08/02 01:32:01;;;;;;;24.67;13.45;;;;;;;;;;5006750;28;20052;-73
2022/08/02 01:34:39;;;;;;;26.17;13.65;;;;;;;;;;5006896;28;20049;-73
2022/08/02 01:37:17;;;;;;;27.17;14.25;;;;;;;;;;4989414;28;20049;-73
2022/08/02 01:39:52;;;;;;;28.05;13.80;;;;;;;;;;5006663;28;20070;-73
2022/08/02 01:42:24;;;;;;;30.83;15.10;;;;;;;;;;5006687;28;20050;-73
2022/08/02 01:44:55;;;;;;;27.58;14.32;;;;;;;;;;5006702;28;20049;-73
2022/08/02 01:47:30;;;;;;;27.20;14.75;;;;;;;;;;4989423;28;20042;-73
2022/08/02 01:50:01;;;;;;;25.08;13.52;;;;;;;;;;5007189;28;20410;-73
2022/08/02 01:52:36;;;;;;;31.63;15.07;;;;;;;;;;5006889;28;20062;-73
2022/08/02 01:55:19;;;;;;;27.40;14.32;;;;;;;;;;5007321;28;20414;-72
2022/08/02 01:58:04;;;;;;;27.70;13.95;;;;;;;;;;5006487;28;20069;-73
2022/08/02 02:00:38;;;;;;;30.40;14.23;;;;;;;;;;5006419;28;20042;-73
2022/08/02 02:03:13;;;;;;;25.90;13.65;;;;;;;;;;5006612;28;20049;-73
2022/08/02 02:05:46;;;;;;;25.77;14.13;;;;;;;;;;5006578;28;20900;-73
2022/08/02 02:08:23;;;;;;;25.33;13.90;;;;;;;;;;5007695;28;20050;-73
2022/08/02 02:10:56;;;;;;;28.05;14.02;;;;;;;;;;5010014;28;20041;-73
2022/08/02 02:13:47;;;;;;;26.92;13.70;;;;;;;;;;5010323;28;20497;-72
2022/08/02 02:16:19;;;;;;;26.35;13.23;;;;;;;;;;5010398;28;20048;-72
2022/08/02 02:18:51;;;;;;;27.80;13.50;;;;;;;;;;4993089;28;20114;-73
2022/08/02 02:21:21;;;;;;;24.17;12.85;;;;;;;;;;5009972;28;20097;-73
2022/08/02 02:23:51;;;;;;;27.92;13.27;;;;;;;;;;5009581;28;20057;-72
2022/08/02 02:26:22;;;;;;;;;;;;;;;;;;5010455;28;20053;-73
2022/08/02 02:29:04;;;;;;;22.30;12.18;;;;;;;;;;5009533;28;19925;-72
2022/08/02 02:31:40;;;;;;;26.23;13.15;;;;;;;;;;5009219;28;20046;-73
2022/08/02 02:34:25;;;;;;;30.60;13.95;;;;;;;;;;5009563;28;20045;-72
2022/08/02 02:36:59;;;;;;;26.80;13.52;;;;;;;;;;4993748;28;20046;-72
2022/08/02 02:39:32;;;;;;;27.13;13.73;;;;;;;;;;5010546;28;20046;-72
2022/08/02 02:42:06;;;;;;;32.88;13.40;;;;;;;;;;5009722;28;20057;-72
2022/08/02 02:44:39;;;;;;;28.45;14.32;;;;;;;;;;5011494;28;20053;-73
2022/08/02 02:47:10;;;;;;;32.17;14.68;;;;;;;;;;5011465;28;20056;-73
2022/08/02 02:49:44;;;;;;;30.50;14.05;;;;;;;;;;5010376;28;20062;-73
2022/08/02 02:52:16;;;;;;;29.25;14.05;;;;;;;;;;4992319;28;20042;-73
2022/08/02 02:54:48;;;;;;;35.17;14.05;;;;;;;;;;5009181;28;20153;-72
2022/08/02 02:57:20;;;;;;;30.52;13.73;;;;;;;;;;5009103;28;20049;-72
2022/08/02 02:59:52;;;;;;;30.80;13.57;;;;;;;;;;5009851;28;20049;-72
2022/08/02 03:02:22;;;;;;;29.38;13.57;;;;;;;;;;5009738;28;20484;-72
2022/08/02 03:04:54;;;;;;;29.67;14.32;;;;;;;;;;5009253;28;20054;-72
2022/08/02 03:07:27;;;;;;;31.35;13.95;;;;;;;;;;5008515;28;20054;-73
2022/08/02 03:09:57;;;;;;;31.42;15.00;;;;;;;;;;5009407;28;20058;-72
2022/08/02 03:12:27;;;;;;;;;;;;;;;;;;5009808;28;20386;-72
2022/08/02 03:15:04;;;;;;;28.92;13.38;;;;;;;;;;4991336;28;19921;-72
2022/08/02 03:17:39;;;;;;;28.73;14.55;;;;;;;;;;4990959;28;20054;-73
2022/08/02 03:20:15;;;;;;;34.25;14.93;;;;;;;;;;5008238;28;20053;-72
2022/08/02 03:22:45;;;;;;;;;;;;;;;;;;5009765;28;20056;-72
2022/08/02 03:25:16;;;;;;;29.92;14.32;;;;;;;;;;5008811;28;19929;-72
2022/08/02 03:27:47;;;;;;;34.05;14.77;;;;;;;;;;5008923;28;20041;-72
2022/08/02 03:30:17;;;;;;;31.40;14.90;;;;;;;;;;5007483;28;20634;-72
2022/08/02 03:32:48;;;;;;;33.25;14.07;;;;;;;;;;4991426;28;20061;-72
2022/08/02 03:35:19;;;;;;;27.77;13.88;;;;;;;;;;4991065;28;20068;-73
2022/08/02 03:37:54;;;;;;;33.63;15.00;;;;;;;;;;5008410;28;20046;-72
2022/08/02 03:40:27;;;;;;;30.23;14.27;;;;;;;;;;5008312;28;20425;-72
2022/08/02 03:42:57;;;;;;;33.05;14.43;;;;;;;;;;5008346;28;20038;-72
2022/08/02 03:45:29;;;;;;;34.47;15.25;;;;;;;;;;5008532;28;20050;-72
2022/08/02 03:48:00;;;;;;;33.83;14.60;;;;;;;;;;4991462;28;20527;-73
2022/08/02 03:50:51;;;;;;;26.70;13.75;;;;;;;;;;5008189;28;20050;-73
2022/08/02 03:53:21;;;;;;;34.05;14.82;;;;;;;;;;5008082;28;20057;-73
2022/08/02 03:55:53;;;;;;;32.88;14.05;;;;;;;;;;5008137;28;20050;-73
2022/08/02 03:58:24;;;;;;;37.70;15.70;;;;;;;;;;4991056;28;20050;-72
2022/08/02 04:00:57;;;;;;;26.27;12.85;;;;;;;;;;5008829;28;20053;-73
2022/08/02 04:03:27;;;;;;;26.38;13.75;;;;;;;;;;5008377;28;20037;-73
2022/08/02 04:05:58;;;;;;;26.60;13.25;;;;;;;;;;5008472;28;20054;-73
2022/08/02 04:08:33;;;;;;;27.17;12.77;;;;;;;;;;5008428;28;20308;-73
2022/08/02 04:13:54;;;;;;;24.67;12.13;;;;;;;;;;5007592;28;20057;-73
2022/08/02 04:16:41;;;;;;;25.45;12.85;;;;;;;;;;5008286;28;20603;-73
2022/08/02 04:19:22;;;;;;;24.75;11.73;;;;;;;;;;5007334;28;20050;-72
2022/08/02 04:21:54;;;;;;;22.88;11.98;;;;;;;;;;4990906;28;20057;-72
2022/08/02 04:24:27;;;;;;;27.02;13.18;;;;;;;;;;5007486;28;20045;-73
2022/08/02 04:27:00;;;;;;;24.67;12.25;;;;;;;;;;5007706;28;20046;-72
2022/08/02 04:29:50;;;;;;;27.52;12.90;;;;;;;;;;4989693;28;20050;-73
2022/08/02 04:32:21;;;;;;;25.27;12.85;;;;;;;;;;5007055;28;20042;-72
2022/08/02 04:34:51;;;;;;;21.83;12.10;;;;;;;;;;5007952;28;20041;-73
2022/08/02 04:37:43;;;;;;;21.23;11.23;;;;;;;;;;5008006;28;20778;-72
2022/08/02 04:40:33;;;;;;;24.10;11.80;;;;;;;;;;5007281;28;20054;-73
2022/08/02 04:43:03;;;;;;;24.17;11.65;;;;;;;;;;5007517;28;20502;-73
2022/08/02 04:45:34;;;;;;;23.10;10.70;;;;;;;;;;4974186;28;20058;-73
2022/08/02 04:48:05;;;;;;;22.02;11.38;;;;;;;;;;5007860;28;20056;-72
2022/08/02 04:50:35;;;;;;;24.15;11.77;;;;;;;;;;5007189;28;20054;-72
2022/08/02 04:53:05;;;;;;;21.10;11.35;;;;;;;;;;5007248;28;20050;-73
2022/08/02 04:55:35;;;;;;;23.85;13.07;;;;;;;;;;5008343;28;20049;-72
2022/08/02 04:58:04;;;;;;;;;;;;;;;;;;5007288;28;20054;-73
2022/08/02 05:00:54;;;;;;;20.75;10.75;;;;;;;;;;4988735;28;19925;-72
2022/08/02 05:03:25;;;;;;;21.65;10.90;;;;;;;;;;4990053;28;20420;-73
2022/08/02 05:05:56;;;;;;;23.77;11.73;;;;;;;;;;5007071;28;20046;-72
2022/08/02 05:08:26;;;;;;;22.88;11.25;;;;;;;;;;5006566;28;20535;-72
2022/08/02 05:10:56;;;;;;;22.05;11.88;;;;;;;;;;5006583;28;20045;-73
2022/08/02 05:13:25;;;;;;;21.85;11.80;;;;;;;;;;5006834;28;20057;-73
2022/08/02 05:15:55;;;;;;;;;;;;;;;;;;5007504;28;20053;-72
2022/08/02 05:18:24;;;;;;;19.48;11.18;;;;;;;;;;5007341;28;19925;-72
2022/08/02 05:20:54;;;;;;;;;;;;;;;;;;5007456;28;20053;-73
2022/08/02 05:23:26;;;;;;;22.70;10.43;;;;;;;;;;5006798;28;19928;-72
2022/08/02 05:25:56;;;;;;;25.15;12.45;;;;;;;;;;5007255;28;20053;-73
2022/08/02 05:28:26;;;;;;;25.85;11.52;;;;;;;;;;5007047;28;20057;-72
2022/08/02 05:30:57;;;;;;;23.13;12.43;;;;;;;;;;5007214;28;20049;-73
2022/08/02 05:33:26;;;;;;;;;;;;;;;;;;5006894;28;20053;-73
2022/08/02 05:35:57;;;;;;;24.85;11.73;;;;;;;;;;5006296;28;19926;-73
2022/08/02 05:38:29;;;;;;;22.25;11.68;;;;;;;;;;5007028;28;20049;-72
2022/08/02 05:41:05;;;;;;;23.92;11.30;;;;;;;;;;5007045;28;20045;-73
2022/08/02 05:43:35;;;;;;;25.52;12.50;;;;;;;;;;5007938;28;20053;-73
2022/08/02 05:46:05;;;;;;;;;;;;;;;;;;5010622;28;20540;-72
2022/08/02 05:48:34;;;;;;;19.33;10.00;;;;;;;;;;5010524;28;19925;-73
2022/08/02 05:51:12;;;;;;;19.95;10.18;;;;;;;;;;5010642;28;20412;-73
2022/08/02 05:53:51;;;;;;;23.95;11.50;;;;;;;;;;5010672;28;20468;-72
2022/08/02 05:56:35;;;;;;;23.50;11.30;;;;;;;;;;5010440;28;20057;-72
2022/08/02 05:59:14;;;;;;;22.27;10.90;;;;;;;;;;5010549;28;20048;-72
2022/08/02 06:01:49;;;;;;;23.45;10.50;;;;;;;;;;5010209;28;20069;-72
2022/08/02 06:04:26;;;;;;;22.45;11.23;;;;;;;;;;5010265;28;20520;-72
2022/08/02 06:07:05;;;;;;;22.45;10.70;;;;;;;;;;5010711;28;20046;-73
2022/08/02 06:09:37;;;;;;;26.10;11.23;;;;;;;;;;5010000;28;20054;-72
2022/08/02 06:12:10;;;;;;;26.20;11.15;;;;;;;;;;5010394;28;20046;-73
2022/08/02 06:14:41;;;;;;;22.83;10.88;;;;;;;;;;5010435;28;20038;-72
2022/08/02 06:17:13;;;;;;;25.00;10.52;;;;;;;;;;5010121;28;20046;-73
2022/08/02 06:19:43;;;;;;;25.17;12.15;;;;;;;;;;5010004;28;20041;-72
2022/08/02 06:22:20;;;;;;;22.65;11.10;;;;;;;;;;4992032;28;20433;-73
2022/08/02 06:25:04;;;;;;;22.98;10.32;;;;;;;;;;5010111;28;20042;-72
2022/08/02 06:27:56;;;;;;;21.85;11.20;;;;;;;;;;5009045;28;20062;-73
2022/08/02 06:30:26;;;;;;;22.13;11.18;;;;;;;;;;5010266;28;20046;-73
2022/08/02 06:32:57;;;;;;;21.25;10.90;;;;;;;;;;5009530;28;20053;-73
2022/08/02 06:35:42;;;;;;;22.15;10.88;;;;;;;;;;5009577;28;20056;-73
2022/08/02 06:38:21;;;;;;;21.15;10.65;;;;;;;;;;5010121;28;20050;-72
2022/08/02 06:41:18;;;;;;;24.85;11.18;;;;;;;;;;5009681;28;20054;-73
2022/08/02 06:43:53;;;;;;;21.15;11.40;;;;;;;;;;5008449;28;20066;-73
2022/08/02 06:46:23;;;;;;;22.08;11.68;;;;;;;;;;5009070;28;20049;-72
2022/08/02 06:49:13;;;;;;;23.40;11.05;;;;;;;;;;5009193;28;20061;-73
2022/08/02 06:51:43;;;;;;;21.85;11.02;;;;;;;;;;5009610;28;20046;-73
2022/08/02 06:54:17;;;;;;;23.52;11.40;;;;;;;;;;5009778;28;20113;-73
2022/08/02 06:56:48;;;;;;;23.17;12.05;;;;;;;;;;5009098;28;20064;-72
2022/08/02 06:59:18;;;;;;;26.20;11.07;;;;;;;;;;5009299;28;20054;-73
2022/08/02 07:01:47;;;;;;;20.77;10.68;;;;;;;;;;5009322;28;20058;-73
2022/08/02 07:04:17;;;;;;;;;;;;;;;;;;4992781;28;20061;-72
2022/08/02 07:06:48;;;;;;;23.45;11.55;;;;;;;;;;5009568;28;19925;-73
2022/08/02 07:09:18;;;;;;;22.42;11.07;;;;;;;;;;4991295;28;20054;-73
2022/08/02 07:11:50;;;;;;;22.50;11.25;;;;;;;;;;5010089;28;20485;-73
2022/08/02 07:14:19;;;;;;;;;;;;;;;;;;5009931;28;20404;-73
2022/08/02 07:16:49;;;;;;;21.92;10.43;;;;;;;;;;5009664;28;19931;-72
2022/08/02 07:19:20;;;;;;;22.50;10.68;;;;;;;;;;5008687;28;20050;-72
2022/08/02 07:22:05;;;;;;;21.00;10.57;;;;;;;;;;5008564;28;20053;-73
2022/08/02 07:24:36;;;;;;;24.75;11.07;;;;;;;;;;5009151;28;20061;-73
2022/08/02 07:27:06;;;;;;;21.33;11.05;;;;;;;;;;5008591;28;20057;-73
2022/08/02 07:29:40;;;;;;;25.40;11.48;;;;;;;;;;4990782;28;20531;-73
2022/08/02 07:32:16;;;;;;;23.40;11.50;;;;;;;;;;5008204;28;20045;-73
2022/08/02 07:34:47;;;;;;;26.35;11.18;;;;;;;;;;5008681;28;20042;-73
2022/08/02 07:37:22;;;;;;;22.52;10.45;;;;;;;;;;5008663;28;20057;-73
2022/08/02 07:40:14;;;;;;;21.63;10.27;;;;;;;;;;5008920;28;20046;-73
2022/08/02 07:42:53;;;;;;;21.08;10.75;;;;;;;;;;5009095;28;20053;-73
2022/08/02 07:45:32;;;;;;;21.80;9.98;;;;;;;;;;5008371;28;20061;-72
2022/08/02 07:48:13;;;;;;;20.45;10.00;;;;;;;;;;5007351;28;20046;-73
2022/08/02 07:50:42;;;;;;;;;;;;;;;;;;4990638;28;20405;-73
2022/08/02 07:53:12;;;;;;;21.17;9.70;;;;;;;;;;5008431;28;19925;-73
2022/08/02 07:55:41;;;;;;;;;;;;;;;;;;5008942;28;20080;-73
2022/08/02 07:58:12;;;;;;;21.38;10.15;;;;;;;;;;5008052;28;19929;-73
2022/08/02 08:00:42;;;;;;;23.92;10.90;;;;;;;;;;5008442;28;20046;-73
2022/08/02 08:03:12;;;;;;;24.23;10.10;;;;;;;;;;5008205;28;20049;-72
2022/08/02 08:05:42;;;;;;;;;;;;;;;;;;5008762;28;20104;-73
2022/08/02 08:08:12;;;;;;;23.48;9.90;;;;;;;;;;5008312;28;20290;-74
2022/08/02 08:10:46;;;;;;;22.85;10.68;;;;;;;;;;5008389;28;20054;-72
2022/08/02 08:13:16;;;;;;;20.23;10.40;;;;;;;;;;5008251;28;20046;-73
2022/08/02 08:15:46;;;;;;;23.05;10.52;;;;;;;;;;5007718;28;20057;-72
2022/08/02 08:18:22;;;;;;;24.63;9.80;;;;;;;;;;5008165;28;20057;-73
2022/08/02 08:20:52;;;;;;;19.80;10.05;;;;;;;;;;5007810;28;20042;-72
2022/08/02 08:23:22;;;;;;;20.90;10.20;;;;;;;;;;5008015;28;20038;-73
2022/08/02 08:25:52;;;;;;;19.80;10.35;;;;;;;;;;5008306;28;20046;-73
2022/08/02 08:28:21;;;;;;;18.17;9.55;;;;;;;;;;5007808;28;20061;-73
2022/08/02 08:30:52;;;;;;;19.27;10.02;;;;;;;;;;5007893;28;20048;-73
2022/08/02 08:33:22;;;;;;;19.48;9.98;;;;;;;;;;5007152;28;20057;-73
2022/08/02 08:35:51;;;;;;;;;;;;;;;;;;5008263;28;20054;-73
2022/08/02 08:38:21;;;;;;;17.23;8.48;;;;;;;;;;5007654;28;20402;-73
2022/08/02 08:40:54;;;;;;;21.90;9.68;;;;;;;;;;4989708;28;20061;-73
2022/08/02 08:43:23;;;;;;;;;;;;;;;;;;5008111;28;20056;-73
2022/08/02 08:45:53;;;;;;;17.25;8.90;;;;;;;;;;5007109;28;19925;-73
2022/08/02 08:48:26;;;;;;;18.30;9.55;;;;;;;;;;5007946;28;20076;-72
2022/08/02 08:51:07;;;;;;;16.80;9.27;;;;;;;;;;5007461;28;20496;-73
2022/08/02 08:53:41;;;;;;;16.60;8.23;;;;;;;;;;5007536;28;20412;-73
2022/08/02 08:56:13;;;;;;;17.85;8.88;;;;;;;;;;5007194;28;20046;-73
2022/08/02 08:58:48;;;;;;;16.17;9.02;;;;;;;;;;5007490;28;20049;-72
2022/08/02 09:01:18;;;;;;;17.95;9.27;;;;;;;;;;5006785;28;20050;-72
2022/08/02 09:03:50;;;;;;;16.10;9.38;;;;;;;;;;5007237;28;20050;-73
2022/08/02 09:06:20;;;;;;;16.80;9.13;;;;;;;;;;5007190;28;20053;-73
2022/08/02 09:08:49;;;;;;;;;;;;;;;;;;5007308;28;20046;-73
2022/08/02 09:11:25;;;;;;;18.00;9.45;;;;;;;;;;5007512;28;19925;-73
2022/08/02 09:13:57;;;;;;;21.55;9.30;;;;;;;;;;5007315;28;20041;-73
2022/08/02 09:16:30;;;;;;;17.73;9.32;;;;;;;;;;4988845;28;20915;-73
2022/08/02 09:19:21;;;;;;;19.08;9.45;;;;;;;;;;5006554;28;20052;-73
2022/08/02 09:22:01;;;;;;;21.75;10.05;;;;;;;;;;5006963;28;20409;-73
2022/08/02 09:24:42;;;;;;;20.20;9.93;;;;;;;;;;5007101;28;20048;-73
2022/08/02 09:27:21;;;;;;;22.90;10.60;;;;;;;;;;5006639;28;20058;-73
2022/08/02 09:29:53;;;;;;;19.35;10.27;;;;;;;;;;5006593;28;20046;-73
2022/08/02 09:32:48;;;;;;;22.85;10.27;;;;;;;;;;5006448;28;20063;-73
2022/08/02 09:35:58;;;;;;;19.95;9.90;;;;;;;;;;4989280;28;20072;-73
2022/08/02 09:38:36;;;;;;;21.58;10.18;;;;;;;;;;4989350;28;20058;-73
2022/08/02 09:41:19;;;;;;;16.77;9.43;;;;;;;;;;4989693;28;20404;-73
2022/08/02 09:43:49;;;;;;;19.58;10.23;;;;;;;;;;5006898;28;20053;-73
2022/08/02 09:46:41;;;;;;;16.38;9.77;;;;;;;;;;5006729;28;20045;-73
2022/08/02 09:49:13;;;;;;;22.95;9.63;;;;;;;;;;5007067;28;20065;-73
2022/08/02 09:51:46;;;;;;;23.98;10.52;;;;;;;;;;5006334;28;20045;-74
2022/08/02 09:54:24;;;;;;;24.02;11.27;;;;;;;;;;5006548;28;20054;-74
2022/08/02 09:56:57;;;;;;;23.75;10.75;;;;;;;;;;5007167;28;20050;-73
2022/08/02 09:59:28;;;;;;;23.42;10.45;;;;;;;;;;5006603;28;20045;-73
2022/08/02 10:02:01;;;;;;;20.55;10.40;;;;;;;;;;5006657;28;20516;-74
2022/08/02 10:04:32;;;;;;;19.50;9.98;;;;;;;;;;5006824;28;20041;-73
2022/08/02 10:07:22;;;;;;;21.95;10.75;;;;;;;;;;5006277;28;20533;-73
2022/08/02 10:09:52;;;;;;;23.50;11.35;;;;;;;;;;5006581;28;20061;-74
2022/08/02 10:12:23;;;;;;;20.65;10.30;;;;;;;;;;4989211;28;20046;-73
2022/08/02 10:14:53;;;;;;;26.40;13.20;;;;;;;;;;5006398;28;20405;-73
2022/08/02 10:17:24;;;;;;;20.50;10.95;;;;;;;;;;5006369;28;20054;-73
2022/08/02 10:19:54;;;;;;;19.67;9.82;;;;;;;;;;5006344;28;20516;-73
2022/08/02 10:22:34;;;;;;;27.90;11.10;;;;;;;;;;4988675;28;20050;-75
2022/08/02 10:25:05;;;;;;;21.50;10.30;;;;;;;;;;5005957;28;20056;-73
2022/08/02 10:27:37;;;;;;;19.88;10.35;;;;;;;;;;5006279;28;20290;-74
2022/08/02 10:30:28;;;;;;;18.67;9.95;;;;;;;;;;5007732;28;20493;-73
2022/08/02 10:33:00;;;;;;;19.27;10.35;;;;;;;;;;5009751;28;20057;-73
2022/08/02 10:35:33;;;;;;;18.45;9.52;;;;;;;;;;5008832;28;20060;-73
2022/08/02 10:38:08;;;;;;;22.13;11.48;;;;;;;;;;5009387;28;20046;-73
2022/08/02 10:40:56;;;;;;;23.33;10.40;;;;;;;;;;5008177;28;20053;-73
2022/08/02 10:43:36;;;;;;;20.67;10.60;;;;;;;;;;5009790;28;20050;-73
2022/08/02 10:46:22;;;;;;;21.98;10.07;;;;;;;;;;5009307;28;20061;-73
2022/08/02 10:49:08;;;;;;;20.67;10.18;;;;;;;;;;5009381;28;20050;-73
2022/08/02 10:52:01;;;;;;;37.03;11.65;;;;;;;;;;5009239;28;20505;-74
2022/08/02 10:54:33;;;;;;;22.20;10.57;;;;;;;;;;5009519;28;20056;-73
2022/08/02 10:57:14;;;;;;;22.25;10.85;;;;;;;;;;5007423;28;20077;-74
2022/08/02 10:59:44;;;;;;;21.00;10.98;;;;;;;;;;5008949;28;20061;-73
2022/08/02 11:02:42;;;;;;;25.10;11.10;;;;;;;;;;5008853;28;20049;-73
2022/08/02 11:05:33;;;;;;;21.33;11.50;;;;;;;;;;5008856;28;20058;-73
2022/08/02 11:08:21;;;;;;;26.00;11.73;;;;;;;;;;5010122;28;20045;-73
2022/08/02 11:10:56;;;;;;;21.55;9.88;;;;;;;;;;5008730;28;20050;-73
2022/08/02 11:13:28;;;;;;;23.48;11.68;;;;;;;;;;5008738;28;20050;-72
2022/08/02 11:16:00;;;;;;;23.00;11.98;;;;;;;;;;5008741;28;20053;-72
2022/08/02 11:18:50;;;;;;;26.80;10.95;;;;;;;;;;4990979;28;20046;-73
2022/08/02 11:21:29;;;;;;;32.35;11.88;;;;;;;;;;5009118;28;20487;-73
2022/08/02 11:24:28;;;;;;;24.38;10.93;;;;;;;;;;5011038;28;20523;-73
2022/08/02 11:27:03;;;;;;;20.95;10.85;;;;;;;;;;4992960;28;20068;-73
2022/08/02 11:29:38;;;;;;;22.17;11.30;;;;;;;;;;5009003;28;20053;-71
2022/08/02 11:32:15;;;;;;;26.02;11.80;;;;;;;;;;5009135;28;20045;-73
2022/08/02 11:34:48;;;;;;;28.55;10.77;;;;;;;;;;5008177;28;20050;-73
2022/08/02 11:37:37;;;;;;;23.40;11.65;;;;;;;;;;5008203;28;20057;-73
2022/08/02 11:40:16;;;;;;;22.88;11.68;;;;;;;;;;5008491;28;20061;-72
2022/08/02 11:42:52;;;;;;;23.45;11.65;;;;;;;;;;5008128;28;20424;-72
2022/08/02 11:45:25;;;;;;;20.20;10.85;;;;;;;;;;5008361;28;20042;-73
2022/08/02 11:47:58;;;;;;;20.58;12.00;;;;;;;;;;5008306;28;20046;-73
2022/08/02 11:50:27;;;;;;;20.38;11.20;;;;;;;;;;5008282;28;20061;-73
2022/08/02 11:52:59;;;;;;;24.55;11.88;;;;;;;;;;5008803;28;20409;-73
2022/08/02 11:55:31;;;;;;;24.05;11.38;;;;;;;;;;5008450;28;20045;-73
2022/08/02 11:58:06;;;;;;;23.30;11.48;;;;;;;;;;5007862;28;20513;-74
2022/08/02 12:00:37;;;;;;;24.10;12.02;;;;;;;;;;4991353;28;20077;-73
2022/08/02 12:03:07;;;;;;;22.58;11.77;;;;;;;;;;5008619;28;20054;-74
2022/08/02 12:05:36;;;;;;;;;;;;;;;;;;5009033;28;20049;-74
2022/08/02 12:08:26;;;;;;;22.10;11.20;;;;;;;;;;5008863;28;19929;-73
2022/08/02 12:11:01;;;;;;;20.73;10.75;;;;;;;;;;5008185;28;20108;-73
2022/08/02 12:13:43;;;;;;;19.95;11.20;;;;;;;;;;5008111;28;20046;-74
2022/08/02 12:19:28;;;;;;;23.52;12.07;;;;;;;;;;5008388;28;20044;-72
2022/08/02 12:22:08;;;;;;;19.95;10.60;;;;;;;;;;5008060;28;20053;-74
2022/08/02 12:24:42;;;;;;;19.05;11.27;;;;;;;;;;5007709;28;20049;-73
2022/08/02 12:27:32;;;;;;;22.23;11.95;;;;;;;;;;4974094;28;20057;-74
2022/08/02 12:30:07;;;;;;;20.40;11.13;;;;;;;;;;5008044;28;20041;-72
2022/08/02 12:32:39;;;;;;;22.83;11.13;;;;;;;;;;5007462;28;20525;-72
2022/08/02 12:35:20;;;;;;;20.02;11.75;;;;;;;;;;5007442;28;20523;-72
2022/08/02 12:37:55;;;;;;;26.17;11.88;;;;;;;;;;5007627;28;20060;-72
2022/08/02 12:40:32;;;;;;;19.35;11.45;;;;;;;;;;5008154;28;20045;-72
2022/08/02 12:43:04;;;;;;;21.67;10.40;;;;;;;;;;5007442;28;20045;-73
2022/08/02 12:45:48;;;;;;;19.30;11.25;;;;;;;;;;5007539;28;20046;-73
2022/08/02 12:48:36;;;;;;;18.42;10.07;;;;;;;;;;5007780;28;20480;-73
2022/08/02 12:51:25;;;;;;;19.05;10.68;;;;;;;;;;5007650;28;20413;-73
2022/08/02 12:54:17;;;;;;;23.95;10.85;;;;;;;;;;5006423;28;20118;-73
2022/08/02 12:56:55;;;;;;;18.80;10.80;;;;;;;;;;5007133;28;20046;-75
2022/08/02 12:59:37;;;;;;;;;;;;;;;;;;5008066;28;20045;-74
2022/08/02 13:02:09;;;;;;;20.65;10.85;;;;;;;;;;4989285;28;19925;-74
2022/08/02 13:04:41;;;;;;;18.60;10.77;;;;;;;;;;5007385;28;20524;-72
2022/08/02 13:07:19;;;;;;;19.70;10.80;;;;;;;;;;5007358;28;20056;-72
2022/08/02 13:09:49;;;;;;;18.13;11.52;;;;;;;;;;5007137;28;20041;-73
2022/08/02 13:12:30;;;;;;;20.80;11.43;;;;;;;;;;5007253;28;20057;-72
2022/08/02 13:15:01;;;;;;;20.27;11.45;;;;;;;;;;5007347;28;20057;-73
2022/08/02 13:17:40;;;;;;;18.45;10.68;;;;;;;;;;5006951;28;20046;-72
2022/08/02 13:20:10;;;;;;;18.10;10.45;;;;;;;;;;4988847;28;20069;-75
2022/08/02 13:22:41;;;;;;;25.10;11.52;;;;;;;;;;5006435;28;20497;-74
2022/08/02 13:25:22;;;;;;;18.38;11.15;;;;;;;;;;4991465;28;20065;-73
2022/08/02 13:27:52;;;;;;;20.08;11.32;;;;;;;;;;5006992;28;20050;-74
2022/08/02 13:30:23;;;;;;;19.23;10.68;;;;;;;;;;5006441;28;20049;-73
2022/08/02 13:32:52;;;;;;;;;;;;;;;;;;5007195;28;20058;-73
2022/08/02 13:35:29;;;;;;;20.08;11.55;;;;;;;;;;5006854;28;19922;-73
2022/08/02 13:37:58;;;;;;;20.63;11.52;;;;;;;;;;5006577;28;20077;-73
2022/08/02 13:40:28;;;;;;;18.23;10.90;;;;;;;;;;5007380;28;20118;-73
2022/08/02 13:43:18;;;;;;;18.50;10.60;;;;;;;;;;5006726;28;20060;-74
2022/08/02 13:45:48;;;;;;;;;;;;;;;;;;5007154;28;20050;-72
2022/08/02 13:48:19;;;;;;;16.33;9.95;;;;;;;;;;4989835;28;19921;-73
2022/08/02 13:50:50;;;;;;;18.38;10.80;;;;;;;;;;5006933;28;20045;-73
2022/08/02 13:53:19;;;;;;;;;;;;;;;;;;5007990;28;20049;-74
2022/08/02 13:55:49;;;;;;;16.98;9.75;;;;;;;;;;4988969;28;20281;-73
2022/08/02 13:58:24;;;;;;;18.05;9.85;;;;;;;;;;5006588;28;20049;-73
2022/08/02 14:00:54;;;;;;;16.50;9.82;;;;;;;;;;5006539;28;20042;-73
2022/08/02 14:03:24;;;;;;;18.77;9.93;;;;;;;;;;5006417;28;20081;-73
2022/08/02 14:06:15;;;;;;;17.63;9.65;;;;;;;;;;5010323;28;20050;-73
2022/08/02 14:08:44;;;;;;;15.90;9.40;;;;;;;;;;5010335;28;20050;-72
2022/08/02 14:11:14;;;;;;;16.88;9.55;;;;;;;;;;5010233;28;20052;-73
2022/08/02 14:13:44;;;;;;;16.73;9.18;;;;;;;;;;5010729;28;20049;-75
2022/08/02 14:16:15;;;;;;;16.50;9.40;;;;;;;;;;5010772;28;20060;-73
2022/08/02 14:18:44;;;;;;;13.57;8.82;;;;;;;;;;5010229;28;20050;-73
2022/08/02 14:21:14;;;;;;;15.70;8.85;;;;;;;;;;5010098;28;20050;-75
2022/08/02 14:23:44;;;;;;;18.85;10.13;;;;;;;;;;5009736;28;20103;-74
2022/08/02 14:26:18;;;;;;;18.45;9.50;;;;;;;;;;5010202;28;20052;-75
2022/08/02 14:28:56;;;;;;;14.40;9.45;;;;;;;;;;5009704;28;20477;-73
2022/08/02 14:31:25;;;;;;;14.88;9.32;;;;;;;;;;5009775;28;20054;-73
2022/08/02 14:33:55;;;;;;;16.20;9.45;;;;;;;;;;5009955;28;20386;-75
2022/08/02 14:36:25;;;;;;;16.88;8.68;;;;;;;;;;5009653;28;20046;-74
2022/08/02 14:38:56;;;;;;;15.32;9.45;;;;;;;;;;5010002;28;20045;-74
2022/08/02 14:41:26;;;;;;;14.77;9.20;;;;;;;;;;5009882;28;20050;-74
2022/08/02 14:44:06;;;;;;;20.95;10.38;;;;;;;;;;5009744;28;20041;-73
2022/08/02 14:46:40;;;;;;;18.98;9.68;;;;;;;;;;5009609;28;20057;-74
2022/08/02 14:49:11;;;;;;;15.82;9.57;;;;;;;;;;5009347;28;20058;-75
2022/08/02 14:51:54;;;;;;;19.52;9.52;;;;;;;;;;5009545;28;20050;-74
2022/08/02 14:54:27;;;;;;;14.18;8.95;;;;;;;;;;5009240;28;20787;-74
2022/08/02 14:57:01;;;;;;;17.17;9.07;;;;;;;;;;5009072;28;20049;-73
2022/08/02 14:59:31;;;;;;;14.98;8.95;;;;;;;;;;5009719;28;20041;-74
2022/08/02 15:02:01;;;;;;;17.48;9.18;;;;;;;;;;5009466;28;20050;-74
2022/08/02 15:04:37;;;;;;;15.00;8.88;;;;;;;;;;5009694;28;20046;-74
2022/08/02 15:07:12;;;;;;;16.85;10.00;;;;;;;;;;5009230;28;20042;-73
2022/08/02 15:09:42;;;;;;;20.00;9.93;;;;;;;;;;5009321;28;20053;-74
2022/08/02 15:12:12;;;;;;;17.20;9.63;;;;;;;;;;5009180;28;20056;-74
2022/08/02 15:14:42;;;;;;;16.70;9.68;;;;;;;;;;5009008;28;20053;-74
2022/08/02 15:17:12;;;;;;;19.42;9.70;;;;;;;;;;5008378;28;20057;-74
2022/08/02 15:19:42;;;;;;;16.98;10.13;;;;;;;;;;5008818;28;20045;-74